Weather at Shayrat Air Base

Public forecast

Using degrees Celsius for public forecast. Weather courtesy of forecast.io.

Closest aviation weather report (METAR) to Shayrat Air Base

Closest report is Damascus International Airport, 67.7 nm (125.3 km) SSW. Retrieved 2020/12/01 23:00 UTC (9 minutes ago):

OSDI 012300Z 04013KT CAVOK 11/06 Q1017

Closest aviation forecast (TAF) to Shayrat Air Base

Closest forecast is Damascus International Airport, 67.7 nm (125.3 km) SSW. Retrieved 2020/12/01 18:24 UTC (5 hours ago):

TAF TAF OSDI 011700Z 0118/0224 27005KT 9999 FEW030 BECMG 0200/0202 VRB03KT 3000 BR PROB30 TEMPO 0202/0206 0200 FG SCT010 BECMG 0208/0210 22010KT 8000 FEW030 SCT100